PABE/BET METAR and TAF weather

Enter ICAO airport designator
Station Type Date Time Source
PABE METAR 2019/04/25 09:53 UTC NOAA

PABE 250953Z 32010KT 10SM CLR M03/M07 A3020 RMK AO2 SLP228 T10331067


Station Type Date Time Source
PABE Decoded METAR 2019/04/25 09:53 UTC NOAA

BETHEL AIRPORT, AK, United States (PABE) 60-47N 161-50W 46M
Apr 25, 2019 - 05:53 AM EDT / 2019.04.25 0953 UTC
Wind: from the NW (320 degrees) at 12 MPH (10 KT):0
Visibility: 10 mile(s):0
Sky conditions: clear
Temperature: 26.1 F (-3.3 C)
Windchill: 15 F (-9 C):1
Dew Point: 19.9 F (-6.7 C)
Relative Humidity: 77%
Pressure (altimeter): 30.2 in. Hg (1022 hPa)
ob: PABE 250953Z 32010KT 10SM CLR M03/M07 A3020 RMK AO2 SLP228 T10331067
cycle: 10

Station Type Date Time Source
PABE TAF 2019/04/25 06:24 UTC NOAA

TAF PABE 250523Z 2506/2606 34011KT P6SM FEW060

Example: see airport list